Map

Track Data

SID SEASON NUMBER BASIN SUBBASIN NAME ISO_TIME NATURE LAT LON WMO_WIND WMO_PRES WMO_AGENCY TRACK_TYPE DIST2LAND LANDFALL IFLAG USA_AGENCY USA_ATCF_ID USA_LAT USA_LON USA_RECORD USA_STATUS USA_WIND USA_PRES USA_SSHS USA_R34_NE USA_R34_SE USA_R34_SW USA_R34_NW USA_R50_NE USA_R50_SE USA_R50_SW USA_R50_NW USA_R64_NE USA_R64_SE USA_R64_SW USA_R64_NW USA_POCI USA_ROCI USA_RMW USA_EYE TOKYO_LAT TOKYO_LON TOKYO_GRADE TOKYO_WIND TOKYO_PRES TOKYO_R50_DIR TOKYO_R50_LONG TOKYO_R50_SHORT TOKYO_R30_DIR TOKYO_R30_LONG TOKYO_R30_SHORT TOKYO_LAND CMA_LAT CMA_LON CMA_CAT CMA_WIND CMA_PRES HKO_LAT HKO_LON HKO_CAT HKO_WIND HKO_PRES NEWDELHI_LAT NEWDELHI_LON NEWDELHI_GRADE NEWDELHI_WIND NEWDELHI_PRES NEWDELHI_CI NEWDELHI_DP NEWDELHI_POCI REUNION_LAT REUNION_LON REUNION_TYPE REUNION_WIND REUNION_PRES REUNION_TNUM REUNION_CI REUNION_RMW REUNION_R34_NE REUNION_R34_SE REUNION_R34_SW REUNION_R34_NW REUNION_R50_NE REUNION_R50_SE REUNION_R50_SW REUNION_R50_NW REUNION_R64_NE REUNION_R64_SE REUNION_R64_SW REUNION_R64_NW BOM_LAT BOM_LON BOM_TYPE BOM_WIND BOM_PRES BOM_TNUM BOM_CI BOM_RMW BOM_R34_NE BOM_R34_SE BOM_R34_SW BOM_R34_NW BOM_R50_NE BOM_R50_SE BOM_R50_SW BOM_R50_NW BOM_R64_NE BOM_R64_SE BOM_R64_SW BOM_R64_NW BOM_ROCI BOM_POCI BOM_EYE BOM_POS_METHOD BOM_PRES_METHOD NADI_LAT NADI_LON NADI_CAT NADI_WIND NADI_PRES WELLINGTON_LAT WELLINGTON_LON WELLINGTON_WIND WELLINGTON_PRES DS824_LAT DS824_LON DS824_STAGE DS824_WIND DS824_PRES TD9636_LAT TD9636_LON TD9636_STAGE TD9636_WIND TD9636_PRES TD9635_LAT TD9635_LON TD9635_WIND TD9635_PRES TD9635_ROCI NEUMANN_LAT NEUMANN_LON NEUMANN_CLASS NEUMANN_WIND NEUMANN_PRES MLC_LAT MLC_LON MLC_CLASS MLC_WIND MLC_PRES USA_GUST BOM_GUST BOM_GUST_PER REUNION_GUST REUNION_GUST_PER USA_SEAHGT USA_SEARAD_NE USA_SEARAD_SE USA_SEARAD_SW USA_SEARAD_NW STORM_SPEED STORM_DIR
1924160N19113 1924 12 WP MM NOT_NAMED 1924-06-07 22:00:00 NR 19.0000 113.400 main 260 237 __________O___ -1 19.0000 113.400 2 5 297
1924160N19113 1924 12 WP MM NOT_NAMED 1924-06-08 00:00:00 NR 19.0809 113.234 main 237 214 __________P___ -1 19.0809 113.234 2 5 297
1924160N19113 1924 12 WP MM NOT_NAMED 1924-06-08 03:00:00 NR 19.1969 112.984 main 214 181 __________P___ -1 19.1969 112.984 2 5 295
1924160N19113 1924 12 WP MM NOT_NAMED 1924-06-08 06:00:00 NR 19.2991 112.734 main 181 158 __________P___ -1 19.2991 112.734 2 5 291
1924160N19113 1924 12 WP MM NOT_NAMED 1924-06-08 09:00:00 NR 19.3794 112.484 main 158 148 __________P___ -1 19.3794 112.484 2 5 288
1924160N19113 1924 12 WP MM NOT_NAMED 1924-06-08 10:00:00 NR 19.4000 112.400 main 148 127 __________O___ -1 19.4000 112.400 2 5 282
1924160N19113 1924 12 WP MM NOT_NAMED 1924-06-08 12:00:00 NR 19.4315 112.233 main 127 105 __________P___ -1 19.4315 112.233 2 5 279
1924160N19113 1924 12 WP MM NOT_NAMED 1924-06-08 15:00:00 NR 19.4658 111.975 main 105 74 __________P___ -1 19.4658 111.975 2 5 278
1924160N19113 1924 12 WP MM NOT_NAMED 1924-06-08 18:00:00 NR 19.5043 111.703 main 74 41 __________P___ -1 19.5043 111.703 2 5 281
1924160N19113 1924 12 WP MM NOT_NAMED 1924-06-08 21:00:00 NR 19.5689 111.406 main 41 31 __________P___ -1 19.5689 111.406 2 6 284
1924160N19113 1924 12 WP MM NOT_NAMED 1924-06-08 22:00:00 NR 19.6000 111.300 main 31 15 __________O___ -1 19.6000 111.300 2 7 292
1924160N19113 1924 12 WP MM NOT_NAMED 1924-06-09 00:00:00 NR 19.6961 111.071 main 15 0 __________P___ -1 19.6961 111.071 2 8 296
1924160N19113 1924 12 WP MM NOT_NAMED 1924-06-09 03:00:00 NR 19.8718 110.701 main 0 0 __________P___ -1 19.8718 110.701 2 8 297
1924160N19113 1924 12 WP MM NOT_NAMED 1924-06-09 06:00:00 NR 20.0633 110.314 main 11 0 __________P___ -1 20.0633 110.314 2 8 297
1924160N19113 1924 12 WP MM NOT_NAMED 1924-06-09 09:00:00 NR 20.2456 109.927 main 0 0 __________P___ -1 20.2456 109.927 2 8 296
1924160N19113 1924 12 WP MM NOT_NAMED 1924-06-09 10:00:00 NR 20.3000 109.800 main 10 10 __________O___ -1 20.3000 109.800 2 8 293
1924160N19113 1924 12 WP MM NOT_NAMED 1924-06-09 12:00:00 NR 20.3956 109.553 main 23 33 __________P___ -1 20.3956 109.553 2 7 290
1924160N19113 1924 12 WP MM NOT_NAMED 1924-06-09 15:00:00 NR 20.5105 109.196 main 61 61 __________P___ -1 20.5105 109.196 2 7 287
1924160N19113 1924 12 WP MM NOT_NAMED 1924-06-09 18:00:00 NR 20.6006 108.851 main 86 94 __________P___ -1 20.6006 108.851 2 7 284
1924160N19113 1924 12 WP MM NOT_NAMED 1924-06-09 21:00:00 NR 20.6762 108.512 main 94 91 __________P___ -1 20.6762 108.512 2 7 283
1924160N19113 1924 12 WP MM NOT_NAMED 1924-06-09 22:00:00 NR 20.7000 108.400 main 91 __________O___ -1 20.7000 108.400 2 6 283

Digital Typhoon Data and Search

About IBTrACS Database

This database is a web-friendly format of International Best Track Archive for Climate Stewardship (IBTrACS), a global best track data archive curated by NOAA dating back to 1842.

Updated: 2021-12-08